sensor_id;sensor_type;location;lat;lon;timestamp;P1;durP1;ratioP1;P2;durP2;ratioP2
5912;SDS011;2982;42.684;23.356;2022-12-17T00:01:20;39.90;;;25.13;;
5912;SDS011;2982;42.684;23.356;2022-12-17T00:03:45;43.70;;;25.33;;
5912;SDS011;2982;42.684;23.356;2022-12-17T00:06:10;41.00;;;25.00;;
5912;SDS011;2982;42.684;23.356;2022-12-17T00:08:35;38.03;;;23.37;;
5912;SDS011;2982;42.684;23.356;2022-12-17T00:11:01;38.37;;;23.97;;
5912;SDS011;2982;42.684;23.356;2022-12-17T00:13:26;37.27;;;22.57;;
5912;SDS011;2982;42.684;23.356;2022-12-17T00:15:51;38.27;;;23.27;;
5912;SDS011;2982;42.684;23.356;2022-12-17T00:18:17;38.33;;;23.57;;
5912;SDS011;2982;42.684;23.356;2022-12-17T00:20:42;37.77;;;22.77;;
5912;SDS011;2982;42.684;23.356;2022-12-17T00:23:07;41.23;;;23.10;;
5912;SDS011;2982;42.684;23.356;2022-12-17T00:25:33;32.43;;;20.97;;
5912;SDS011;2982;42.684;23.356;2022-12-17T00:27:58;34.83;;;22.13;;
5912;SDS011;2982;42.684;23.356;2022-12-17T00:30:23;33.23;;;21.90;;
5912;SDS011;2982;42.684;23.356;2022-12-17T00:32:49;30.70;;;20.07;;
5912;SDS011;2982;42.684;23.356;2022-12-17T00:35:15;36.27;;;21.10;;
5912;SDS011;2982;42.684;23.356;2022-12-17T00:37:40;34.20;;;21.87;;
5912;SDS011;2982;42.684;23.356;2022-12-17T00:40:05;38.33;;;23.93;;
5912;SDS011;2982;42.684;23.356;2022-12-17T00:42:31;38.00;;;24.10;;
5912;SDS011;2982;42.684;23.356;2022-12-17T00:44:57;32.57;;;21.00;;
5912;SDS011;2982;42.684;23.356;2022-12-17T00:47:22;33.00;;;22.60;;
5912;SDS011;2982;42.684;23.356;2022-12-17T00:49:47;35.53;;;24.20;;
5912;SDS011;2982;42.684;23.356;2022-12-17T00:52:13;35.63;;;22.17;;
5912;SDS011;2982;42.684;23.356;2022-12-17T00:54:38;34.20;;;20.57;;
5912;SDS011;2982;42.684;23.356;2022-12-17T00:57:03;31.30;;;20.63;;
5912;SDS011;2982;42.684;23.356;2022-12-17T00:59:29;40.03;;;23.20;;
5912;SDS011;2982;42.684;23.356;2022-12-17T01:01:54;33.00;;;21.63;;
5912;SDS011;2982;42.684;23.356;2022-12-17T01:04:19;32.83;;;20.53;;
5912;SDS011;2982;42.684;23.356;2022-12-17T01:06:45;41.53;;;24.03;;
5912;SDS011;2982;42.684;23.356;2022-12-17T01:09:10;39.10;;;21.90;;
5912;SDS011;2982;42.684;23.356;2022-12-17T01:11:35;28.87;;;19.97;;
5912;SDS011;2982;42.684;23.356;2022-12-17T01:14:01;31.60;;;20.67;;
5912;SDS011;2982;42.684;23.356;2022-12-17T01:16:26;31.13;;;20.70;;
5912;SDS011;2982;42.684;23.356;2022-12-17T01:18:52;27.37;;;18.33;;
5912;SDS011;2982;42.684;23.356;2022-12-17T01:21:17;34.83;;;19.97;;
5912;SDS011;2982;42.684;23.356;2022-12-17T01:23:44;38.13;;;22.30;;
5912;SDS011;2982;42.684;23.356;2022-12-17T01:26:09;34.00;;;23.30;;
5912;SDS011;2982;42.684;23.356;2022-12-17T01:28:34;28.37;;;21.73;;
5912;SDS011;2982;42.684;23.356;2022-12-17T01:31:00;37.57;;;22.83;;
5912;SDS011;2982;42.684;23.356;2022-12-17T01:33:25;32.47;;;20.40;;
5912;SDS011;2982;42.684;23.356;2022-12-17T01:35:54;29.97;;;20.93;;
5912;SDS011;2982;42.684;23.356;2022-12-17T01:38:22;32.97;;;21.07;;
5912;SDS011;2982;42.684;23.356;2022-12-17T01:40:51;34.27;;;21.27;;
5912;SDS011;2982;42.684;23.356;2022-12-17T01:43:30;30.03;;;20.87;;
5912;SDS011;2982;42.684;23.356;2022-12-17T01:45:56;33.07;;;20.03;;
5912;SDS011;2982;42.684;23.356;2022-12-17T01:48:23;27.60;;;18.87;;
5912;SDS011;2982;42.684;23.356;2022-12-17T01:50:55;28.50;;;19.97;;
5912;SDS011;2982;42.684;23.356;2022-12-17T01:53:26;29.67;;;19.20;;
5912;SDS011;2982;42.684;23.356;2022-12-17T01:55:55;29.90;;;20.00;;
5912;SDS011;2982;42.684;23.356;2022-12-17T01:58:20;29.53;;;19.60;;
5912;SDS011;2982;42.684;23.356;2022-12-17T02:00:46;28.87;;;19.17;;
5912;SDS011;2982;42.684;23.356;2022-12-17T02:03:15;26.00;;;18.83;;
5912;SDS011;2982;42.684;23.356;2022-12-17T02:08:24;28.43;;;19.00;;
5912;SDS011;2982;42.684;23.356;2022-12-17T02:11:25;30.87;;;19.83;;
5912;SDS011;2982;42.684;23.356;2022-12-17T02:13:52;26.23;;;18.27;;
5912;SDS011;2982;42.684;23.356;2022-12-17T02:16:41;28.20;;;18.93;;
5912;SDS011;2982;42.684;23.356;2022-12-17T02:19:30;26.40;;;18.10;;
5912;SDS011;2982;42.684;23.356;2022-12-17T02:22:19;26.67;;;18.53;;
5912;SDS011;2982;42.684;23.356;2022-12-17T02:24:57;24.63;;;16.97;;
5912;SDS011;2982;42.684;23.356;2022-12-17T02:27:30;25.20;;;16.77;;
5912;SDS011;2982;42.684;23.356;2022-12-17T02:29:57;25.57;;;17.17;;
5912;SDS011;2982;42.684;23.356;2022-12-17T02:32:26;26.77;;;17.97;;
5912;SDS011;2982;42.684;23.356;2022-12-17T02:34:52;21.53;;;16.77;;
5912;SDS011;2982;42.684;23.356;2022-12-17T02:37:18;24.37;;;15.80;;
5912;SDS011;2982;42.684;23.356;2022-12-17T02:39:43;23.00;;;15.87;;
5912;SDS011;2982;42.684;23.356;2022-12-17T02:42:09;24.43;;;16.90;;
5912;SDS011;2982;42.684;23.356;2022-12-17T02:44:35;24.30;;;16.17;;
5912;SDS011;2982;42.684;23.356;2022-12-17T02:47:03;20.60;;;15.90;;
5912;SDS011;2982;42.684;23.356;2022-12-17T02:49:31;26.37;;;17.07;;
5912;SDS011;2982;42.684;23.356;2022-12-17T02:51:57;20.40;;;15.90;;
5912;SDS011;2982;42.684;23.356;2022-12-17T02:54:27;25.73;;;16.40;;
5912;SDS011;2982;42.684;23.356;2022-12-17T02:56:53;24.80;;;16.30;;
5912;SDS011;2982;42.684;23.356;2022-12-17T02:59:18;22.03;;;15.03;;
5912;SDS011;2982;42.684;23.356;2022-12-17T03:01:44;24.50;;;15.77;;
5912;SDS011;2982;42.684;23.356;2022-12-17T03:04:09;24.97;;;15.90;;
5912;SDS011;2982;42.684;23.356;2022-12-17T03:06:34;23.33;;;15.07;;
5912;SDS011;2982;42.684;23.356;2022-12-17T03:09:00;23.13;;;15.90;;
5912;SDS011;2982;42.684;23.356;2022-12-17T03:11:28;19.60;;;15.27;;
5912;SDS011;2982;42.684;23.356;2022-12-17T03:13:54;19.27;;;14.63;;
5912;SDS011;2982;42.684;23.356;2022-12-17T03:16:19;28.50;;;17.33;;
5912;SDS011;2982;42.684;23.356;2022-12-17T03:18:45;24.07;;;16.27;;
5912;SDS011;2982;42.684;23.356;2022-12-17T03:21:10;22.13;;;15.80;;
5912;SDS011;2982;42.684;23.356;2022-12-17T03:23:35;27.00;;;16.53;;
5912;SDS011;2982;42.684;23.356;2022-12-17T03:26:01;24.57;;;16.13;;
5912;SDS011;2982;42.684;23.356;2022-12-17T03:28:27;21.90;;;15.83;;
5912;SDS011;2982;42.684;23.356;2022-12-17T03:30:53;24.87;;;15.37;;
5912;SDS011;2982;42.684;23.356;2022-12-17T03:33:20;22.30;;;14.83;;
5912;SDS011;2982;42.684;23.356;2022-12-17T03:35:46;22.00;;;15.23;;
5912;SDS011;2982;42.684;23.356;2022-12-17T03:38:11;19.67;;;15.00;;
5912;SDS011;2982;42.684;23.356;2022-12-17T03:40:37;29.17;;;16.93;;
5912;SDS011;2982;42.684;23.356;2022-12-17T03:43:06;27.13;;;16.40;;
5912;SDS011;2982;42.684;23.356;2022-12-17T03:45:32;21.30;;;15.80;;
5912;SDS011;2982;42.684;23.356;2022-12-17T03:48:04;21.90;;;15.13;;
5912;SDS011;2982;42.684;23.356;2022-12-17T03:50:30;26.27;;;16.27;;
5912;SDS011;2982;42.684;23.356;2022-12-17T03:52:56;19.13;;;14.30;;
5912;SDS011;2982;42.684;23.356;2022-12-17T03:55:21;23.97;;;16.57;;
5912;SDS011;2982;42.684;23.356;2022-12-17T03:57:46;19.10;;;15.23;;
5912;SDS011;2982;42.684;23.356;2022-12-17T04:00:12;23.23;;;15.50;;
5912;SDS011;2982;42.684;23.356;2022-12-17T04:02:37;20.77;;;14.77;;
5912;SDS011;2982;42.684;23.356;2022-12-17T04:05:03;20.73;;;15.20;;
5912;SDS011;2982;42.684;23.356;2022-12-17T04:07:28;18.33;;;13.93;;
5912;SDS011;2982;42.684;23.356;2022-12-17T04:09:54;23.40;;;14.73;;
5912;SDS011;2982;42.684;23.356;2022-12-17T04:12:19;25.63;;;15.47;;
5912;SDS011;2982;42.684;23.356;2022-12-17T04:14:44;20.13;;;14.47;;
5912;SDS011;2982;42.684;23.356;2022-12-17T04:17:09;21.67;;;13.80;;
5912;SDS011;2982;42.684;23.356;2022-12-17T04:19:35;19.50;;;14.77;;
5912;SDS011;2982;42.684;23.356;2022-12-17T04:22:00;20.50;;;13.73;;
5912;SDS011;2982;42.684;23.356;2022-12-17T04:24:25;19.90;;;13.03;;
5912;SDS011;2982;42.684;23.356;2022-12-17T04:26:50;21.30;;;14.03;;
5912;SDS011;2982;42.684;23.356;2022-12-17T04:29:16;20.33;;;14.30;;
5912;SDS011;2982;42.684;23.356;2022-12-17T04:31:41;17.63;;;13.27;;
5912;SDS011;2982;42.684;23.356;2022-12-17T04:34:06;17.07;;;14.07;;
5912;SDS011;2982;42.684;23.356;2022-12-17T04:36:32;19.40;;;13.53;;
5912;SDS011;2982;42.684;23.356;2022-12-17T04:38:57;18.57;;;13.77;;
5912;SDS011;2982;42.684;23.356;2022-12-17T04:41:22;16.63;;;12.93;;
5912;SDS011;2982;42.684;23.356;2022-12-17T04:43:47;17.10;;;12.80;;
5912;SDS011;2982;42.684;23.356;2022-12-17T04:46:13;18.10;;;12.70;;
5912;SDS011;2982;42.684;23.356;2022-12-17T04:48:38;20.00;;;12.67;;
5912;SDS011;2982;42.684;23.356;2022-12-17T04:51:04;16.40;;;13.23;;
5912;SDS011;2982;42.684;23.356;2022-12-17T04:53:29;19.53;;;13.47;;
5912;SDS011;2982;42.684;23.356;2022-12-17T04:55:55;16.97;;;12.67;;
5912;SDS011;2982;42.684;23.356;2022-12-17T04:58:20;13.77;;;11.03;;
5912;SDS011;2982;42.684;23.356;2022-12-17T05:00:45;13.07;;;11.30;;
5912;SDS011;2982;42.684;23.356;2022-12-17T05:03:12;18.23;;;12.67;;
5912;SDS011;2982;42.684;23.356;2022-12-17T05:05:38;15.33;;;11.90;;
5912;SDS011;2982;42.684;23.356;2022-12-17T05:08:03;18.37;;;11.87;;
5912;SDS011;2982;42.684;23.356;2022-12-17T05:10:29;17.37;;;12.43;;
5912;SDS011;2982;42.684;23.356;2022-12-17T05:12:55;13.73;;;11.17;;
5912;SDS011;2982;42.684;23.356;2022-12-17T05:15:24;12.57;;;11.03;;
5912;SDS011;2982;42.684;23.356;2022-12-17T05:17:50;15.63;;;11.73;;
5912;SDS011;2982;42.684;23.356;2022-12-17T05:20:15;13.20;;;11.40;;
5912;SDS011;2982;42.684;23.356;2022-12-17T05:22:40;17.23;;;11.47;;
5912;SDS011;2982;42.684;23.356;2022-12-17T05:25:06;16.63;;;11.90;;
5912;SDS011;2982;42.684;23.356;2022-12-17T05:27:32;13.30;;;10.70;;
5912;SDS011;2982;42.684;23.356;2022-12-17T05:29:57;17.23;;;11.27;;
5912;SDS011;2982;42.684;23.356;2022-12-17T05:32:22;20.77;;;11.47;;
5912;SDS011;2982;42.684;23.356;2022-12-17T05:34:48;15.33;;;11.83;;
5912;SDS011;2982;42.684;23.356;2022-12-17T05:37:13;16.70;;;12.10;;
5912;SDS011;2982;42.684;23.356;2022-12-17T05:39:46;14.57;;;11.90;;
5912;SDS011;2982;42.684;23.356;2022-12-17T05:42:11;14.23;;;11.17;;
5912;SDS011;2982;42.684;23.356;2022-12-17T05:44:36;21.17;;;12.83;;
5912;SDS011;2982;42.684;23.356;2022-12-17T05:47:02;13.83;;;11.67;;
5912;SDS011;2982;42.684;23.356;2022-12-17T05:49:27;16.40;;;11.67;;
5912;SDS011;2982;42.684;23.356;2022-12-17T05:51:53;13.93;;;11.17;;
5912;SDS011;2982;42.684;23.356;2022-12-17T05:54:18;12.80;;;11.50;;
5912;SDS011;2982;42.684;23.356;2022-12-17T05:56:44;14.23;;;10.97;;
5912;SDS011;2982;42.684;23.356;2022-12-17T05:59:09;14.70;;;12.50;;
5912;SDS011;2982;42.684;23.356;2022-12-17T06:01:34;19.30;;;11.80;;
5912;SDS011;2982;42.684;23.356;2022-12-17T06:04:00;16.27;;;12.57;;
5912;SDS011;2982;42.684;23.356;2022-12-17T06:06:25;19.57;;;11.80;;
5912;SDS011;2982;42.684;23.356;2022-12-17T06:08:50;16.13;;;11.93;;
5912;SDS011;2982;42.684;23.356;2022-12-17T06:11:15;13.37;;;10.43;;
5912;SDS011;2982;42.684;23.356;2022-12-17T06:13:41;16.33;;;11.70;;
5912;SDS011;2982;42.684;23.356;2022-12-17T06:16:06;15.67;;;11.47;;
5912;SDS011;2982;42.684;23.356;2022-12-17T06:18:31;14.73;;;10.03;;
5912;SDS011;2982;42.684;23.356;2022-12-17T06:20:57;15.53;;;11.23;;
5912;SDS011;2982;42.684;23.356;2022-12-17T06:23:23;13.73;;;11.50;;
5912;SDS011;2982;42.684;23.356;2022-12-17T06:25:48;14.30;;;12.33;;
5912;SDS011;2982;42.684;23.356;2022-12-17T06:28:16;15.83;;;12.60;;
5912;SDS011;2982;42.684;23.356;2022-12-17T06:30:41;20.20;;;12.77;;
5912;SDS011;2982;42.684;23.356;2022-12-17T06:33:08;15.03;;;12.20;;
5912;SDS011;2982;42.684;23.356;2022-12-17T06:35:34;17.17;;;12.63;;
5912;SDS011;2982;42.684;23.356;2022-12-17T06:38:00;19.13;;;13.43;;
5912;SDS011;2982;42.684;23.356;2022-12-17T06:40:28;15.70;;;12.20;;
5912;SDS011;2982;42.684;23.356;2022-12-17T06:42:54;20.10;;;13.67;;
5912;SDS011;2982;42.684;23.356;2022-12-17T06:45:20;18.60;;;13.43;;
5912;SDS011;2982;42.684;23.356;2022-12-17T06:47:45;20.10;;;14.20;;
5912;SDS011;2982;42.684;23.356;2022-12-17T06:50:10;18.10;;;13.63;;
5912;SDS011;2982;42.684;23.356;2022-12-17T06:52:36;21.17;;;12.57;;
5912;SDS011;2982;42.684;23.356;2022-12-17T06:55:01;22.90;;;14.20;;
5912;SDS011;2982;42.684;23.356;2022-12-17T06:57:27;22.63;;;13.60;;
5912;SDS011;2982;42.684;23.356;2022-12-17T06:59:52;22.47;;;14.47;;
5912;SDS011;2982;42.684;23.356;2022-12-17T07:02:18;23.03;;;14.73;;
5912;SDS011;2982;42.684;23.356;2022-12-17T07:04:43;16.83;;;14.17;;
5912;SDS011;2982;42.684;23.356;2022-12-17T07:07:08;20.33;;;15.83;;
5912;SDS011;2982;42.684;23.356;2022-12-17T07:09:33;20.13;;;15.87;;
5912;SDS011;2982;42.684;23.356;2022-12-17T07:11:59;21.77;;;15.90;;
5912;SDS011;2982;42.684;23.356;2022-12-17T07:14:24;21.30;;;15.63;;
5912;SDS011;2982;42.684;23.356;2022-12-17T07:16:49;16.70;;;14.00;;
5912;SDS011;2982;42.684;23.356;2022-12-17T07:19:15;17.50;;;14.03;;
5912;SDS011;2982;42.684;23.356;2022-12-17T07:21:40;14.93;;;12.23;;
5912;SDS011;2982;42.684;23.356;2022-12-17T07:24:05;17.52;;;10.93;;
5912;SDS011;2982;42.684;23.356;2022-12-17T07:26:30;12.63;;;10.20;;
5912;SDS011;2982;42.684;23.356;2022-12-17T07:28:56;10.80;;;8.87;;
5912;SDS011;2982;42.684;23.356;2022-12-17T07:31:21;12.03;;;8.13;;
5912;SDS011;2982;42.684;23.356;2022-12-17T07:33:46;10.68;;;8.93;;
5912;SDS011;2982;42.684;23.356;2022-12-17T07:36:11;9.07;;;7.35;;
5912;SDS011;2982;42.684;23.356;2022-12-17T07:38:37;11.60;;;8.75;;
5912;SDS011;2982;42.684;23.356;2022-12-17T07:41:02;12.30;;;8.35;;
5912;SDS011;2982;42.684;23.356;2022-12-17T07:43:27;12.85;;;9.23;;
5912;SDS011;2982;42.684;23.356;2022-12-17T07:45:53;13.23;;;9.73;;
5912;SDS011;2982;42.684;23.356;2022-12-17T07:48:18;14.43;;;11.27;;
5912;SDS011;2982;42.684;23.356;2022-12-17T07:50:47;15.02;;;10.75;;
5912;SDS011;2982;42.684;23.356;2022-12-17T07:53:13;13.55;;;10.00;;
5912;SDS011;2982;42.684;23.356;2022-12-17T07:55:38;10.43;;;9.32;;
5912;SDS011;2982;42.684;23.356;2022-12-17T07:58:05;16.05;;;10.57;;
5912;SDS011;2982;42.684;23.356;2022-12-17T08:00:32;12.90;;;9.88;;
5912;SDS011;2982;42.684;23.356;2022-12-17T08:02:58;15.05;;;10.60;;
5912;SDS011;2982;42.684;23.356;2022-12-17T08:05:24;13.82;;;9.07;;
5912;SDS011;2982;42.684;23.356;2022-12-17T08:07:49;13.97;;;10.00;;
5912;SDS011;2982;42.684;23.356;2022-12-17T08:10:15;14.13;;;8.83;;
5912;SDS011;2982;42.684;23.356;2022-12-17T08:12:40;13.50;;;9.10;;
5912;SDS011;2982;42.684;23.356;2022-12-17T08:15:05;11.38;;;9.10;;
5912;SDS011;2982;42.684;23.356;2022-12-17T08:17:31;10.70;;;8.98;;
5912;SDS011;2982;42.684;23.356;2022-12-17T08:19:56;11.15;;;9.63;;
5912;SDS011;2982;42.684;23.356;2022-12-17T08:22:21;12.35;;;8.85;;
5912;SDS011;2982;42.684;23.356;2022-12-17T08:24:47;11.15;;;9.43;;
5912;SDS011;2982;42.684;23.356;2022-12-17T08:27:15;13.00;;;9.43;;
5912;SDS011;2982;42.684;23.356;2022-12-17T08:29:40;14.13;;;9.73;;
5912;SDS011;2982;42.684;23.356;2022-12-17T08:32:06;12.27;;;9.65;;
5912;SDS011;2982;42.684;23.356;2022-12-17T08:34:31;16.70;;;9.98;;
5912;SDS011;2982;42.684;23.356;2022-12-17T08:36:56;12.80;;;9.00;;
5912;SDS011;2982;42.684;23.356;2022-12-17T08:39:22;13.43;;;9.05;;
5912;SDS011;2982;42.684;23.356;2022-12-17T08:41:47;19.08;;;9.98;;
5912;SDS011;2982;42.684;23.356;2022-12-17T08:44:12;15.82;;;9.52;;
5912;SDS011;2982;42.684;23.356;2022-12-17T08:46:38;17.13;;;10.98;;
5912;SDS011;2982;42.684;23.356;2022-12-17T08:49:03;14.23;;;11.15;;
5912;SDS011;2982;42.684;23.356;2022-12-17T08:51:28;12.98;;;11.57;;
5912;SDS011;2982;42.684;23.356;2022-12-17T08:53:53;16.02;;;11.45;;
5912;SDS011;2982;42.684;23.356;2022-12-17T08:56:19;10.45;;;8.35;;
5912;SDS011;2982;42.684;23.356;2022-12-17T08:58:44;7.03;;;5.30;;
5912;SDS011;2982;42.684;23.356;2022-12-17T09:01:09;6.07;;;4.97;;
5912;SDS011;2982;42.684;23.356;2022-12-17T09:03:35;8.48;;;3.53;;
5912;SDS011;2982;42.684;23.356;2022-12-17T09:06:00;3.13;;;2.63;;
5912;SDS011;2982;42.684;23.356;2022-12-17T09:08:25;5.28;;;3.00;;
5912;SDS011;2982;42.684;23.356;2022-12-17T09:10:51;4.38;;;3.83;;
5912;SDS011;2982;42.684;23.356;2022-12-17T09:13:16;3.38;;;3.00;;
5912;SDS011;2982;42.684;23.356;2022-12-17T09:15:42;4.90;;;2.97;;
5912;SDS011;2982;42.684;23.356;2022-12-17T09:18:07;3.28;;;2.97;;
5912;SDS011;2982;42.684;23.356;2022-12-17T09:20:32;3.75;;;2.33;;
5912;SDS011;2982;42.684;23.356;2022-12-17T09:22:57;3.55;;;3.00;;
5912;SDS011;2982;42.684;23.356;2022-12-17T09:25:23;3.03;;;2.80;;
5912;SDS011;2982;42.684;23.356;2022-12-17T09:27:48;2.90;;;2.70;;
5912;SDS011;2982;42.684;23.356;2022-12-17T09:30:13;4.53;;;2.90;;
5912;SDS011;2982;42.684;23.356;2022-12-17T09:32:38;5.35;;;3.20;;
5912;SDS011;2982;42.684;23.356;2022-12-17T09:35:04;3.65;;;3.28;;
5912;SDS011;2982;42.684;23.356;2022-12-17T09:37:29;3.53;;;2.95;;
5912;SDS011;2982;42.684;23.356;2022-12-17T09:39:54;2.65;;;2.45;;
5912;SDS011;2982;42.684;23.356;2022-12-17T09:44:56;3.90;;;2.63;;
5912;SDS011;2982;42.684;23.356;2022-12-17T09:47:48;2.53;;;1.98;;
5912;SDS011;2982;42.684;23.356;2022-12-17T09:50:30;3.38;;;1.80;;
5912;SDS011;2982;42.684;23.356;2022-12-17T09:52:56;3.90;;;1.85;;
5912;SDS011;2982;42.684;23.356;2022-12-17T09:55:26;1.80;;;1.70;;
5912;SDS011;2982;42.684;23.356;2022-12-17T09:57:57;3.55;;;2.13;;
5912;SDS011;2982;42.684;23.356;2022-12-17T10:00:25;4.60;;;2.60;;
5912;SDS011;2982;42.684;23.356;2022-12-17T10:02:51;4.47;;;2.28;;
5912;SDS011;2982;42.684;23.356;2022-12-17T10:05:21;1.77;;;1.63;;
5912;SDS011;2982;42.684;23.356;2022-12-17T10:07:51;3.30;;;1.60;;
5912;SDS011;2982;42.684;23.356;2022-12-17T10:10:21;7.40;;;2.40;;
5912;SDS011;2982;42.684;23.356;2022-12-17T10:12:49;2.88;;;2.05;;
5912;SDS011;2982;42.684;23.356;2022-12-17T10:15:14;6.03;;;2.03;;
5912;SDS011;2982;42.684;23.356;2022-12-17T10:17:41;2.20;;;2.00;;
5912;SDS011;2982;42.684;23.356;2022-12-17T10:20:16;4.07;;;2.00;;
5912;SDS011;2982;42.684;23.356;2022-12-17T10:22:46;6.15;;;2.00;;
5912;SDS011;2982;42.684;23.356;2022-12-17T10:25:15;2.45;;;1.77;;
5912;SDS011;2982;42.684;23.356;2022-12-17T10:27:42;9.70;;;3.03;;
5912;SDS011;2982;42.684;23.356;2022-12-17T10:30:13;3.63;;;1.60;;
5912;SDS011;2982;42.684;23.356;2022-12-17T10:32:39;2.28;;;1.30;;
5912;SDS011;2982;42.684;23.356;2022-12-17T10:35:20;1.73;;;1.13;;
5912;SDS011;2982;42.684;23.356;2022-12-17T10:37:48;1.15;;;1.05;;
5912;SDS011;2982;42.684;23.356;2022-12-17T10:40:19;2.63;;;0.82;;
5912;SDS011;2982;42.684;23.356;2022-12-17T10:42:49;2.15;;;0.63;;
5912;SDS011;2982;42.684;23.356;2022-12-17T10:47:43;2.60;;;0.63;;
5912;SDS011;2982;42.684;23.356;2022-12-17T10:50:10;1.95;;;0.80;;
5912;SDS011;2982;42.684;23.356;2022-12-17T10:52:44;0.95;;;0.90;;
5912;SDS011;2982;42.684;23.356;2022-12-17T10:55:29;0.85;;;0.60;;
5912;SDS011;2982;42.684;23.356;2022-12-17T10:58:01;0.50;;;0.40;;
5912;SDS011;2982;42.684;23.356;2022-12-17T11:00:28;0.77;;;0.47;;
5912;SDS011;2982;42.684;23.356;2022-12-17T11:02:55;0.40;;;0.40;;
5912;SDS011;2982;42.684;23.356;2022-12-17T11:05:25;0.25;;;0.25;;
5912;SDS011;2982;42.684;23.356;2022-12-17T11:07:52;1.00;;;0.40;;
5912;SDS011;2982;42.684;23.356;2022-12-17T11:10:18;0.52;;;0.50;;
5912;SDS011;2982;42.684;23.356;2022-12-17T11:12:47;0.40;;;0.40;;
5912;SDS011;2982;42.684;23.356;2022-12-17T11:15:59;2.22;;;0.50;;
5912;SDS011;2982;42.684;23.356;2022-12-17T11:18:14;2.75;;;0.57;;
5912;SDS011;2982;42.684;23.356;2022-12-17T11:20:49;0.85;;;0.40;;
5912;SDS011;2982;42.684;23.356;2022-12-17T11:23:18;5.80;;;2.40;;
5912;SDS011;2982;42.684;23.356;2022-12-17T11:28:38;3.17;;;1.42;;
5912;SDS011;2982;42.684;23.356;2022-12-17T11:31:47;1.20;;;1.10;;
5912;SDS011;2982;42.684;23.356;2022-12-17T11:36:56;2.63;;;1.98;;
5912;SDS011;2982;42.684;23.356;2022-12-17T11:42:38;4.53;;;3.38;;
5912;SDS011;2982;42.684;23.356;2022-12-17T11:45:30;4.13;;;3.83;;
5912;SDS011;2982;42.684;23.356;2022-12-17T11:48:45;4.22;;;3.58;;
5912;SDS011;2982;42.684;23.356;2022-12-17T11:51:16;3.03;;;2.08;;
5912;SDS011;2982;42.684;23.356;2022-12-17T11:53:53;2.00;;;1.90;;
5912;SDS011;2982;42.684;23.356;2022-12-17T11:56:30;2.22;;;1.85;;
5912;SDS011;2982;42.684;23.356;2022-12-17T11:59:06;3.42;;;1.90;;
5912;SDS011;2982;42.684;23.356;2022-12-17T12:01:52;1.70;;;1.60;;
5912;SDS011;2982;42.684;23.356;2022-12-17T12:10:40;2.97;;;2.58;;
5912;SDS011;2982;42.684;23.356;2022-12-17T12:13:57;3.75;;;2.35;;
5912;SDS011;2982;42.684;23.356;2022-12-17T12:16:21;2.80;;;2.17;;
5912;SDS011;2982;42.684;23.356;2022-12-17T12:21:39;4.35;;;3.67;;
5912;SDS011;2982;42.684;23.356;2022-12-17T12:34:50;3.92;;;3.30;;
5912;SDS011;2982;42.684;23.356;2022-12-17T12:37:17;3.65;;;3.35;;
5912;SDS011;2982;42.684;23.356;2022-12-17T12:42:36;5.70;;;4.00;;
5912;SDS011;2982;42.684;23.356;2022-12-17T12:48:05;4.90;;;4.20;;
5912;SDS011;2982;42.684;23.356;2022-12-17T12:51:37;4.47;;;3.67;;
5912;SDS011;2982;42.684;23.356;2022-12-17T12:53:56;7.25;;;4.68;;
5912;SDS011;2982;42.684;23.356;2022-12-17T12:56:33;7.97;;;5.95;;
5912;SDS011;2982;42.684;23.356;2022-12-17T12:59:08;6.05;;;3.88;;
5912;SDS011;2982;42.684;23.356;2022-12-17T13:01:36;5.93;;;4.38;;
5912;SDS011;2982;42.684;23.356;2022-12-17T13:04:14;4.35;;;3.80;;
5912;SDS011;2982;42.684;23.356;2022-12-17T13:06:53;7.45;;;4.88;;
5912;SDS011;2982;42.684;23.356;2022-12-17T13:11:49;6.25;;;5.13;;
5912;SDS011;2982;42.684;23.356;2022-12-17T13:14:20;6.43;;;4.82;;
5912;SDS011;2982;42.684;23.356;2022-12-17T13:16:57;6.38;;;5.35;;
5912;SDS011;2982;42.684;23.356;2022-12-17T13:19:39;5.00;;;4.28;;
5912;SDS011;2982;42.684;23.356;2022-12-17T13:24:44;15.52;;;6.22;;
5912;SDS011;2982;42.684;23.356;2022-12-17T13:27:27;7.65;;;4.90;;
5912;SDS011;2982;42.684;23.356;2022-12-17T13:41:20;6.07;;;5.15;;
5912;SDS011;2982;42.684;23.356;2022-12-17T13:43:52;5.57;;;5.05;;
5912;SDS011;2982;42.684;23.356;2022-12-17T13:46:23;8.65;;;4.38;;
5912;SDS011;2982;42.684;23.356;2022-12-17T13:48:51;6.72;;;3.90;;
5912;SDS011;2982;42.684;23.356;2022-12-17T13:51:21;6.70;;;3.90;;
5912;SDS011;2982;42.684;23.356;2022-12-17T13:53:51;4.55;;;4.15;;
5912;SDS011;2982;42.684;23.356;2022-12-17T13:56:36;5.30;;;4.60;;
5912;SDS011;2982;42.684;23.356;2022-12-17T13:59:02;4.60;;;3.90;;
5912;SDS011;2982;42.684;23.356;2022-12-17T14:01:29;6.25;;;4.20;;
5912;SDS011;2982;42.684;23.356;2022-12-17T14:03:56;5.22;;;4.22;;
5912;SDS011;2982;42.684;23.356;2022-12-17T14:06:24;5.28;;;4.45;;
5912;SDS011;2982;42.684;23.356;2022-12-17T14:08:54;5.30;;;4.72;;
5912;SDS011;2982;42.684;23.356;2022-12-17T14:11:20;7.57;;;4.90;;
5912;SDS011;2982;42.684;23.356;2022-12-17T14:13:47;4.20;;;3.90;;
5912;SDS011;2982;42.684;23.356;2022-12-17T14:16:16;5.57;;;4.70;;
5912;SDS011;2982;42.684;23.356;2022-12-17T14:18:48;5.50;;;5.00;;
5912;SDS011;2982;42.684;23.356;2022-12-17T14:21:17;5.65;;;5.10;;
5912;SDS011;2982;42.684;23.356;2022-12-17T14:23:43;4.95;;;4.53;;
5912;SDS011;2982;42.684;23.356;2022-12-17T14:26:11;6.57;;;5.15;;
5912;SDS011;2982;42.684;23.356;2022-12-17T14:28:48;5.55;;;4.95;;
5912;SDS011;2982;42.684;23.356;2022-12-17T14:33:43;5.80;;;4.80;;
5912;SDS011;2982;42.684;23.356;2022-12-17T14:38:53;8.55;;;5.85;;
5912;SDS011;2982;42.684;23.356;2022-12-17T14:41:23;5.50;;;5.00;;
5912;SDS011;2982;42.684;23.356;2022-12-17T14:43:54;5.72;;;5.28;;
5912;SDS011;2982;42.684;23.356;2022-12-17T14:46:23;5.53;;;4.97;;
5912;SDS011;2982;42.684;23.356;2022-12-17T14:48:53;5.85;;;5.28;;
5912;SDS011;2982;42.684;23.356;2022-12-17T14:51:23;6.75;;;5.35;;
5912;SDS011;2982;42.684;23.356;2022-12-17T14:56:48;7.38;;;6.72;;
5912;SDS011;2982;42.684;23.356;2022-12-17T14:59:30;10.32;;;7.25;;
5912;SDS011;2982;42.684;23.356;2022-12-17T15:01:59;8.98;;;8.07;;
5912;SDS011;2982;42.684;23.356;2022-12-17T15:04:31;10.40;;;7.00;;
5912;SDS011;2982;42.684;23.356;2022-12-17T15:06:56;8.15;;;7.22;;
5912;SDS011;2982;42.684;23.356;2022-12-17T15:09:22;9.38;;;7.05;;
5912;SDS011;2982;42.684;23.356;2022-12-17T15:11:48;12.00;;;9.15;;
5912;SDS011;2982;42.684;23.356;2022-12-17T15:14:13;8.52;;;7.68;;
5912;SDS011;2982;42.684;23.356;2022-12-17T15:16:38;12.90;;;9.45;;
5912;SDS011;2982;42.684;23.356;2022-12-17T15:19:04;10.70;;;8.82;;
5912;SDS011;2982;42.684;23.356;2022-12-17T15:21:29;12.68;;;9.07;;
5912;SDS011;2982;42.684;23.356;2022-12-17T15:23:54;13.13;;;9.88;;
5912;SDS011;2982;42.684;23.356;2022-12-17T15:26:19;12.68;;;9.68;;
5912;SDS011;2982;42.684;23.356;2022-12-17T15:28:45;11.68;;;9.13;;
5912;SDS011;2982;42.684;23.356;2022-12-17T15:31:11;13.68;;;9.10;;
5912;SDS011;2982;42.684;23.356;2022-12-17T15:33:38;14.10;;;9.52;;
5912;SDS011;2982;42.684;23.356;2022-12-17T15:36:03;12.05;;;9.25;;
5912;SDS011;2982;42.684;23.356;2022-12-17T15:38:29;15.75;;;10.07;;
5912;SDS011;2982;42.684;23.356;2022-12-17T15:40:54;14.90;;;9.25;;
5912;SDS011;2982;42.684;23.356;2022-12-17T15:43:20;12.70;;;8.82;;
5912;SDS011;2982;42.684;23.356;2022-12-17T15:45:46;10.57;;;8.52;;
5912;SDS011;2982;42.684;23.356;2022-12-17T15:48:14;14.40;;;9.07;;
5912;SDS011;2982;42.684;23.356;2022-12-17T15:50:44;15.13;;;8.60;;
5912;SDS011;2982;42.684;23.356;2022-12-17T15:53:10;14.43;;;9.55;;
5912;SDS011;2982;42.684;23.356;2022-12-17T15:55:36;9.50;;;8.57;;
5912;SDS011;2982;42.684;23.356;2022-12-17T15:58:02;13.32;;;9.20;;